createdAt,value
2018-09-28T00:01:55.001Z,99981.69
2018-09-28T00:04:32.033Z,99983.94
2018-09-28T00:07:02.704Z,99978.43
2018-09-28T00:09:38.647Z,99985.45
2018-09-28T00:12:07.629Z,99982.73
2018-09-28T00:14:36.193Z,99980.64
2018-09-28T00:17:04.737Z,99978.50
2018-09-28T00:19:33.318Z,99982.94
2018-09-28T00:22:01.877Z,99980.19
2018-09-28T00:24:30.477Z,99975.44
2018-09-28T00:26:59.026Z,99976.05
2018-09-28T00:29:27.620Z,99971.86
2018-09-28T00:31:56.169Z,99968.63
2018-09-28T00:34:24.742Z,99962.11
2018-09-28T00:36:53.310Z,99957.28
2018-09-28T00:39:21.949Z,99956.94
2018-09-28T00:41:50.466Z,99960.06
2018-09-28T00:44:19.319Z,99956.73
2018-09-28T00:46:47.856Z,99962.84
2018-09-28T00:49:16.437Z,99958.30
2018-09-28T00:51:44.992Z,99953.57
2018-09-28T00:54:13.544Z,99950.09
2018-09-28T00:56:42.097Z,99953.08
2018-09-28T00:59:10.706Z,99940.64
2018-09-28T01:01:39.237Z,99934.28
2018-09-28T01:04:07.865Z,99931.47
2018-09-28T01:06:36.415Z,99927.69
2018-09-28T01:09:07.772Z,99936.23
2018-09-28T01:11:36.407Z,99934.53
2018-09-28T01:14:05.031Z,99933.63
2018-09-28T01:16:33.592Z,99924.41
2018-09-28T01:19:02.625Z,99930.28
2018-09-28T01:21:31.512Z,99930.97
2018-09-28T01:24:00.235Z,99928.34
2018-09-28T01:26:28.848Z,99923.65
2018-09-28T01:28:57.423Z,99925.01
2018-09-28T01:31:26.067Z,99922.84
2018-09-28T01:33:54.689Z,99927.28
2018-09-28T01:36:23.292Z,99924.13
2018-09-28T01:38:51.843Z,99923.05
2018-09-28T01:41:20.784Z,99920.61
2018-09-28T01:43:49.937Z,99919.97
2018-09-28T01:46:18.536Z,99909.86
2018-09-28T01:48:47.072Z,99916.67
2018-09-28T01:51:15.682Z,99908.70
2018-09-28T01:53:44.941Z,99913.83
2018-09-28T01:56:17.869Z,99907.05
2018-09-28T01:58:46.645Z,99902.55
2018-09-28T02:01:15.225Z,99896.60
2018-09-28T02:03:50.492Z,99905.30
2018-09-28T02:06:31.490Z,99900.31
2018-09-28T02:09:06.882Z,99897.05
2018-09-28T02:11:38.662Z,99908.63
2018-09-28T02:14:11.222Z,99905.42
2018-09-28T02:16:39.981Z,99899.04
2018-09-28T02:19:08.626Z,99895.02
2018-09-28T02:21:37.187Z,99894.81
2018-09-28T02:24:05.735Z,99901.42
2018-09-28T02:26:34.340Z,99899.48
2018-09-28T02:29:02.888Z,99898.03
2018-09-28T02:31:35.864Z,99897.05
2018-09-28T02:34:04.412Z,99895.39
2018-09-28T02:36:32.992Z,99886.64
2018-09-28T02:39:01.536Z,99883.78
2018-09-28T02:41:30.134Z,99884.97
2018-09-28T02:44:00.120Z,99887.23
2018-09-28T02:46:28.892Z,99883.27
2018-09-28T02:49:04.931Z,99883.09
2018-09-28T02:51:40.058Z,99883.25
2018-09-28T02:54:08.696Z,99881.88
2018-09-28T02:56:37.272Z,99877.96
2018-09-28T02:59:05.983Z,99881.94
2018-09-28T03:01:34.566Z,99878.92
2018-09-28T03:04:03.121Z,99881.47
2018-09-28T03:06:31.708Z,99875.66
2018-09-28T03:09:00.275Z,99876.33
2018-09-28T03:11:28.860Z,99873.05
2018-09-28T03:13:59.116Z,99880.24
2018-09-28T03:16:32.322Z,99879.64
2018-09-28T03:19:05.064Z,99879.41
2018-09-28T03:21:37.933Z,99882.54
2018-09-28T03:24:07.563Z,99878.66
2018-09-28T03:26:42.767Z,99878.56
2018-09-28T03:29:11.345Z,99879.75
2018-09-28T03:31:43.256Z,99880.73
2018-09-28T03:34:14.035Z,99880.80
2018-09-28T03:36:42.590Z,99889.30
2018-09-28T03:39:14.785Z,99885.42
2018-09-28T03:41:46.898Z,99879.57
2018-09-28T03:44:24.547Z,99870.00
2018-09-28T03:46:54.749Z,99876.30
2018-09-28T03:49:26.764Z,99878.04
2018-09-28T03:51:58.397Z,99877.17
2018-09-28T03:54:29.890Z,99878.99
2018-09-28T03:57:00.095Z,99884.83
2018-09-28T03:59:29.945Z,99875.95
2018-09-28T04:02:02.017Z,99885.47
2018-09-28T04:04:32.080Z,99891.30
2018-09-28T04:07:09.737Z,99879.52
2018-09-28T04:09:38.484Z,99885.88
2018-09-28T04:12:07.058Z,99886.61
2018-09-28T04:14:35.676Z,99877.31
2018-09-28T04:17:04.536Z,99881.69
2018-09-28T04:19:33.151Z,99875.98
2018-09-28T04:22:02.754Z,99871.77
2018-09-28T04:24:32.482Z,99873.02
2018-09-28T04:27:01.295Z,99876.02
2018-09-28T04:29:29.842Z,99881.88
2018-09-28T04:31:58.424Z,99884.22
2018-09-28T04:34:27.962Z,99891.62
2018-09-28T04:36:56.571Z,99889.00
2018-09-28T04:39:25.112Z,99894.99
2018-09-28T04:41:53.668Z,99891.25
2018-09-28T04:44:22.241Z,99894.94
2018-09-28T04:46:50.812Z,99897.05
2018-09-28T04:49:19.898Z,99902.37
2018-09-28T04:51:48.446Z,99902.66
2018-09-28T04:54:17.057Z,99895.98
2018-09-28T04:56:45.605Z,99906.78
2018-09-28T04:59:14.192Z,99902.78
2018-09-28T05:01:42.782Z,99904.45
2018-09-28T05:04:11.358Z,99910.45
2018-09-28T05:06:39.924Z,99912.33
2018-09-28T05:09:14.756Z,99910.62
2018-09-28T05:11:43.556Z,99907.54
2018-09-28T05:14:22.951Z,99916.39
2018-09-28T05:16:52.141Z,99909.13
2018-09-28T05:19:20.771Z,99913.81
2018-09-28T05:21:49.515Z,99922.23
2018-09-28T05:24:18.084Z,99924.11
2018-09-28T05:26:46.663Z,99910.47
2018-09-28T05:29:15.241Z,99919.20
2018-09-28T05:31:43.915Z,99914.50
2018-09-28T05:34:12.356Z,99911.07
2018-09-28T05:36:40.917Z,99924.98
2018-09-28T05:39:09.962Z,99937.12
2018-09-28T05:41:38.580Z,99933.06
2018-09-28T05:44:07.522Z,99937.05
2018-09-28T05:46:36.217Z,99943.38
2018-09-28T05:49:04.823Z,99945.88
2018-09-28T05:51:33.437Z,99943.50
2018-09-28T05:54:01.944Z,99949.20
2018-09-28T05:56:30.617Z,99949.23
2018-09-28T05:59:04.289Z,99945.05
2018-09-28T06:01:38.131Z,99950.94
2018-09-28T06:04:11.966Z,99960.97
2018-09-28T06:06:40.690Z,99957.42
2018-09-28T06:09:10.578Z,99957.84
2018-09-28T06:11:39.624Z,99966.15
2018-09-28T06:14:08.772Z,99968.72
2018-09-28T06:16:37.356Z,99963.91
2018-09-28T06:19:05.954Z,99975.03
2018-09-28T06:21:34.532Z,99976.50
2018-09-28T06:24:03.111Z,99975.34
2018-09-28T06:26:31.693Z,99964.95
2018-09-28T06:29:00.240Z,99959.55
2018-09-28T06:31:28.821Z,99964.08
2018-09-28T06:33:57.395Z,99961.91
2018-09-28T06:36:25.967Z,99967.59
2018-09-28T06:38:54.585Z,99965.67
2018-09-28T06:41:23.135Z,99972.65
2018-09-28T06:43:51.734Z,99973.38
2018-09-28T06:46:20.296Z,99979.09
2018-09-28T06:48:48.892Z,99978.39
2018-09-28T06:51:17.493Z,99980.71
2018-09-28T06:53:46.094Z,99975.30
2018-09-28T06:56:14.681Z,99985.90
2018-09-28T06:58:43.265Z,99984.47
2018-09-28T07:01:12.746Z,99986.84
2018-09-28T07:03:41.344Z,99995.47
2018-09-28T07:06:09.892Z,99995.42
2018-09-28T07:08:38.520Z,99997.67
2018-09-28T07:11:08.030Z,100006.61
2018-09-28T07:13:36.671Z,99997.64
2018-09-28T07:16:05.271Z,99998.60
2018-09-28T07:18:33.814Z,99994.17
2018-09-28T07:21:02.394Z,99994.40
2018-09-28T07:23:30.920Z,99998.33
2018-09-28T07:26:00.513Z,100001.46
2018-09-28T07:28:29.240Z,100000.59
2018-09-28T07:30:57.840Z,100000.80
2018-09-28T07:33:26.379Z,100004.58
2018-09-28T07:35:55.010Z,99990.83
2018-09-28T07:38:23.505Z,100005.72
2018-09-28T07:40:52.082Z,100006.66
2018-09-28T07:43:20.846Z,100012.05
2018-09-28T07:45:49.463Z,100007.53
2018-09-28T07:48:18.008Z,100010.64
2018-09-28T07:50:46.620Z,100014.84
2018-09-28T07:53:15.178Z,100023.06
2018-09-28T07:55:43.782Z,100022.92
2018-09-28T07:58:12.296Z,100024.16
2018-09-28T08:00:40.890Z,100021.97
2018-09-28T08:03:09.430Z,100018.44
2018-09-28T08:05:38.008Z,100011.09
2018-09-28T08:08:06.641Z,100009.26
2018-09-28T08:10:35.205Z,100014.02
2018-09-28T08:13:03.793Z,100024.83
2018-09-28T08:15:32.363Z,100019.08
2018-09-28T08:18:00.947Z,100027.66
2018-09-28T08:20:29.502Z,100023.61
2018-09-28T08:22:58.039Z,100025.77
2018-09-28T08:25:26.690Z,100020.63
2018-09-28T08:27:55.230Z,100023.14
2018-09-28T08:30:23.858Z,100021.86
2018-09-28T08:32:52.346Z,100021.06
2018-09-28T08:35:20.919Z,100018.69
2018-09-28T08:37:49.445Z,100017.89
2018-09-28T08:40:18.031Z,100023.37
2018-09-28T08:42:46.896Z,100023.87
2018-09-28T08:45:15.540Z,100019.95
2018-09-28T08:47:44.121Z,100023.64
2018-09-28T08:50:12.685Z,100015.77
2018-09-28T08:52:41.213Z,100017.41
2018-09-28T08:55:09.824Z,100015.48
2018-09-28T08:57:38.370Z,100013.52
2018-09-28T09:00:07.008Z,100016.55
2018-09-28T09:02:35.545Z,100013.07
2018-09-28T09:05:04.129Z,100017.05
2018-09-28T09:07:32.690Z,100013.21
2018-09-28T09:10:01.245Z,100011.14
2018-09-28T09:12:29.822Z,100009.44
2018-09-28T09:14:58.404Z,100008.50
2018-09-28T09:17:27.521Z,100009.17
2018-09-28T09:19:56.061Z,100001.35
2018-09-28T09:22:24.633Z,100005.02
2018-09-28T09:24:53.185Z,100003.15
2018-09-28T09:27:21.760Z,100004.98
2018-09-28T09:29:50.282Z,99997.11
2018-09-28T09:32:19.121Z,100000.97
2018-09-28T09:34:47.781Z,99999.99
2018-09-28T09:37:16.373Z,99996.17
2018-09-28T09:39:44.906Z,99998.69
2018-09-28T09:42:13.526Z,99994.55
2018-09-28T09:44:42.446Z,99999.77
2018-09-28T09:47:11.013Z,99996.08
2018-09-28T09:49:39.593Z,99994.80
2018-09-28T09:52:08.165Z,99996.02
2018-09-28T09:54:36.692Z,100000.92
2018-09-28T09:57:05.270Z,99995.95
2018-09-28T09:59:33.803Z,99995.25
2018-09-28T10:02:09.618Z,99995.13
2018-09-28T10:04:38.482Z,99996.64
2018-09-28T10:07:07.073Z,100003.14
2018-09-28T10:09:38.994Z,99995.23
2018-09-28T10:12:09.670Z,99993.63
2018-09-28T10:14:40.027Z,99992.42
2018-09-28T10:17:15.675Z,99986.81
2018-09-28T10:19:48.717Z,99984.35
2018-09-28T10:22:20.410Z,99983.18
2018-09-28T10:24:54.551Z,99977.41
2018-09-28T10:27:27.021Z,99972.45
2018-09-28T10:30:01.910Z,99972.42
2018-09-28T10:32:33.780Z,99965.83
2018-09-28T10:35:03.656Z,99966.50
2018-09-28T10:37:36.552Z,99961.92
2018-09-28T10:40:06.929Z,99954.47
2018-09-28T10:42:38.709Z,99960.50
2018-09-28T10:45:11.973Z,99964.10
2018-09-28T10:47:46.119Z,99960.85
2018-09-28T10:50:20.802Z,99952.77
2018-09-28T10:52:55.314Z,99949.84
2018-09-28T10:55:26.366Z,99950.01
2018-09-28T10:57:56.809Z,99947.16
2018-09-28T11:00:29.983Z,99941.13
2018-09-28T11:03:02.262Z,99947.02
2018-09-28T11:05:31.575Z,99943.66
2018-09-28T11:08:01.750Z,99942.44
2018-09-28T11:10:30.569Z,99945.44
2018-09-28T11:13:01.185Z,99942.05
2018-09-28T11:15:33.677Z,99940.97
2018-09-28T11:18:04.360Z,99939.94
2018-09-28T11:20:33.332Z,99939.31
2018-09-28T11:23:05.374Z,99933.83
2018-09-28T11:25:36.662Z,99936.23
2018-09-28T11:28:12.856Z,99937.61
2018-09-28T11:30:42.713Z,99939.64
2018-09-28T11:33:15.778Z,99932.67
2018-09-28T11:35:44.583Z,99927.16
2018-09-28T11:38:14.413Z,99931.13
2018-09-28T11:40:42.977Z,99932.21
2018-09-28T11:43:13.539Z,99934.69
2018-09-28T11:45:42.140Z,99931.14
2018-09-28T11:48:10.684Z,99927.21
2018-09-28T11:50:39.693Z,99928.59
2018-09-28T11:53:08.329Z,99925.59
2018-09-28T11:55:36.884Z,99927.43
2018-09-28T11:58:16.461Z,99925.59
2018-09-28T12:00:45.133Z,99916.22
2018-09-28T12:03:13.717Z,99907.99
2018-09-28T12:05:42.261Z,99904.56
2018-09-28T12:08:20.083Z,99907.41
2018-09-28T12:10:52.012Z,99907.83
2018-09-28T12:13:32.572Z,99897.17
2018-09-28T12:16:13.950Z,99898.93
2018-09-28T12:18:49.805Z,99884.19
2018-09-28T12:21:18.762Z,99895.59
2018-09-28T12:23:47.686Z,99894.53
2018-09-28T12:26:16.337Z,99888.41
2018-09-28T12:28:44.897Z,99881.44
2018-09-28T12:31:13.992Z,99873.13
2018-09-28T12:33:43.016Z,99863.62
2018-09-28T12:36:11.695Z,99857.41
2018-09-28T12:38:40.251Z,99861.69
2018-09-28T12:41:08.796Z,99857.29
2018-09-28T12:43:37.437Z,99859.71
2018-09-28T12:46:06.089Z,99855.59
2018-09-28T12:48:34.722Z,99853.05
2018-09-28T12:51:03.253Z,99853.23
2018-09-28T12:53:32.224Z,99850.05
2018-09-28T12:56:00.746Z,99854.41
2018-09-28T12:58:30.193Z,99847.05
2018-09-28T13:00:58.861Z,99851.89
2018-09-28T13:03:27.300Z,99848.73
2018-09-28T13:05:55.860Z,99850.39
2018-09-28T13:08:24.467Z,99854.78
2018-09-28T13:10:59.630Z,99851.02
2018-09-28T13:13:33.087Z,99846.48
2018-09-28T13:16:04.318Z,99841.53
2018-09-28T13:18:34.546Z,99851.73
2018-09-28T13:21:03.068Z,99839.42
2018-09-28T13:23:31.594Z,99845.46
2018-09-28T13:26:03.570Z,99842.67
2018-09-28T13:28:34.436Z,99843.01
2018-09-28T13:31:03.055Z,99842.50
2018-09-28T13:33:36.901Z,99833.95
2018-09-28T13:36:08.011Z,99835.66
2018-09-28T13:38:36.663Z,99830.48
2018-09-28T13:41:10.713Z,99832.74
2018-09-28T13:43:41.335Z,99831.87
2018-09-28T13:46:16.351Z,99837.14
2018-09-28T13:48:55.465Z,99838.58
2018-09-28T13:51:24.612Z,99832.41
2018-09-28T13:53:58.308Z,99835.83
2018-09-28T13:56:31.334Z,99845.98
2018-09-28T13:58:59.936Z,99847.91
2018-09-28T14:01:34.930Z,99841.59
2018-09-28T14:04:04.525Z,99848.29
2018-09-28T14:06:33.130Z,99854.87
2018-09-28T14:09:08.970Z,99853.05
2018-09-28T14:11:39.236Z,99850.78
2018-09-28T14:14:13.304Z,99853.88
2018-09-28T14:16:42.093Z,99871.99
2018-09-28T14:19:10.589Z,99860.25
2018-09-28T14:21:39.180Z,99861.82
2018-09-28T14:24:07.725Z,99868.28
2018-09-28T14:26:36.337Z,99872.00
2018-09-28T14:29:04.903Z,99873.28
2018-09-28T14:31:33.506Z,99880.90
2018-09-28T14:34:02.073Z,99873.86
2018-09-28T14:36:30.679Z,99873.81
2018-09-28T14:38:59.246Z,99875.95
2018-09-28T14:41:27.845Z,99871.69
2018-09-28T14:43:56.649Z,99874.90
2018-09-28T14:46:25.293Z,99885.01
2018-09-28T14:48:53.877Z,99884.33
2018-09-28T14:51:22.389Z,99876.91
2018-09-28T14:53:50.944Z,99888.61
2018-09-28T14:56:19.590Z,99897.00
2018-09-28T14:58:48.131Z,99900.00
2018-09-28T15:01:16.793Z,99906.98
2018-09-28T15:03:45.248Z,99902.71
2018-09-28T15:06:13.850Z,99904.47
2018-09-28T15:08:42.536Z,99909.83
2018-09-28T15:11:11.076Z,99917.90
2018-09-28T15:13:39.644Z,99919.69
2018-09-28T15:16:10.135Z,99917.77
2018-09-28T15:18:38.812Z,99928.86
2018-09-28T15:21:07.413Z,99931.94
2018-09-28T15:23:35.963Z,99935.41
2018-09-28T15:26:04.550Z,99937.16
2018-09-28T15:28:33.090Z,99943.92
2018-09-28T15:31:01.659Z,99943.64
2018-09-28T15:33:30.309Z,99944.65
2018-09-28T15:35:58.884Z,99945.51
2018-09-28T15:38:27.435Z,99953.09
2018-09-28T15:40:56.420Z,99948.67
2018-09-28T15:43:25.449Z,99957.36
2018-09-28T15:45:54.070Z,99954.10
2018-09-28T15:48:23.113Z,99960.34
2018-09-28T15:50:51.741Z,99979.77
2018-09-28T15:53:20.301Z,99979.60
2018-09-28T15:55:48.921Z,99984.99
2018-09-28T15:58:18.428Z,99995.94
2018-09-28T16:00:47.106Z,100004.33
2018-09-28T16:03:17.226Z,100010.37
2018-09-28T16:05:45.776Z,100013.30
2018-09-28T16:08:14.345Z,100026.08
2018-09-28T16:10:42.869Z,100030.16
2018-09-28T16:13:11.584Z,100022.92
2018-09-28T16:15:40.114Z,100042.66
2018-09-28T16:18:08.673Z,100044.96
2018-09-28T16:20:37.238Z,100043.08
2018-09-28T16:23:08.640Z,100053.11
2018-09-28T16:25:41.981Z,100055.42
2018-09-28T16:28:10.560Z,100052.52
2018-09-28T16:30:39.093Z,100057.48
2018-09-28T16:33:07.665Z,100066.93
2018-09-28T16:35:36.312Z,100071.23
2018-09-28T16:38:05.177Z,100072.69
2018-09-28T16:40:37.129Z,100063.09
2018-09-28T16:43:07.528Z,100066.58
2018-09-28T16:45:37.968Z,100079.23
2018-09-28T16:48:06.864Z,100080.11
2018-09-28T16:50:41.503Z,100085.84
2018-09-28T16:53:10.312Z,100098.91
2018-09-28T16:55:38.873Z,100107.95
2018-09-28T16:58:07.464Z,100103.25
2018-09-28T17:00:51.629Z,100112.70
2018-09-28T17:03:20.606Z,100106.09
2018-09-28T17:05:49.151Z,100110.44
2018-09-28T17:08:17.701Z,100115.15
2018-09-28T17:10:46.252Z,100128.72
2018-09-28T17:13:14.852Z,100122.79
2018-09-28T17:15:43.445Z,100122.34
2018-09-28T17:18:12.019Z,100130.80
2018-09-28T17:20:40.585Z,100132.69
2018-09-28T17:23:09.152Z,100137.05
2018-09-28T17:25:40.894Z,100137.14
2018-09-28T17:28:10.285Z,100137.88
2018-09-28T17:30:40.181Z,100140.42
2018-09-28T17:33:08.865Z,100140.62
2018-09-28T17:35:37.898Z,100154.84
2018-09-28T17:38:06.890Z,100152.78
2018-09-28T17:40:35.437Z,100153.63
2018-09-28T17:43:04.186Z,100151.91
2018-09-28T17:45:33.415Z,100166.78
2018-09-28T17:48:02.001Z,100160.09
2018-09-28T17:50:30.587Z,100165.77
2018-09-28T17:52:59.180Z,100165.77
2018-09-28T17:55:27.781Z,100174.70
2018-09-28T17:57:56.325Z,100166.61
2018-09-28T18:00:24.933Z,100182.66
2018-09-28T18:02:54.596Z,100190.75
2018-09-28T18:05:23.800Z,100201.88
2018-09-28T18:07:52.345Z,100205.60
2018-09-28T18:10:22.241Z,100205.52
2018-09-28T18:12:50.839Z,100213.42
2018-09-28T18:15:19.398Z,100217.36
2018-09-28T18:17:48.450Z,100215.56
2018-09-28T18:20:17.254Z,100216.58
2018-09-28T18:22:47.022Z,100220.84
2018-09-28T18:25:16.821Z,100221.49
2018-09-28T18:27:45.458Z,100229.67
2018-09-28T18:30:14.168Z,100234.69
2018-09-28T18:32:43.768Z,100228.84
2018-09-28T18:35:12.528Z,100232.27
2018-09-28T18:37:42.107Z,100228.50
2018-09-28T18:40:12.012Z,100237.17
2018-09-28T18:42:45.803Z,100244.72
2018-09-28T18:45:28.319Z,100247.14
2018-09-28T18:47:57.145Z,100248.20
2018-09-28T18:50:26.677Z,100245.56
2018-09-28T18:53:01.503Z,100260.45
2018-09-28T18:55:41.204Z,100264.50
2018-09-28T18:58:10.587Z,100263.27
2018-09-28T19:00:39.186Z,100267.14
2018-09-28T19:03:08.130Z,100275.05
2018-09-28T19:05:36.808Z,100270.87
2018-09-28T19:08:05.401Z,100278.34
2018-09-28T19:10:33.967Z,100277.38
2018-09-28T19:13:02.662Z,100287.17
2018-09-28T19:15:31.264Z,100278.42
2018-09-28T19:17:59.821Z,100283.20
2018-09-28T19:20:28.431Z,100285.92
2018-09-28T19:22:56.997Z,100293.66
2018-09-28T19:25:25.599Z,100292.01
2018-09-28T19:27:54.174Z,100290.94
2018-09-28T19:30:22.762Z,100294.73
2018-09-28T19:32:51.311Z,100298.12
2018-09-28T19:35:20.036Z,100308.89
2018-09-28T19:37:48.582Z,100314.41
2018-09-28T19:40:18.690Z,100308.80
2018-09-28T19:42:49.964Z,100319.20
2018-09-28T19:45:19.778Z,100320.23
2018-09-28T19:47:48.380Z,100318.61
2018-09-28T19:50:17.695Z,100317.94
2018-09-28T19:55:07.666Z,100317.05
2018-09-28T19:57:36.225Z,100320.61
2018-09-28T20:00:04.886Z,100328.00
2018-09-28T20:02:33.420Z,100330.48
2018-09-28T20:05:02.085Z,100328.16
2018-09-28T20:07:30.652Z,100336.66
2018-09-28T20:09:59.258Z,100338.22
2018-09-28T20:12:27.812Z,100347.56
2018-09-28T20:14:56.394Z,100348.67
2018-09-28T20:17:24.933Z,100348.20
2018-09-28T20:19:53.485Z,100353.95
2018-09-28T20:22:22.014Z,100359.10
2018-09-28T20:24:50.608Z,100355.34
2018-09-28T20:27:19.157Z,100357.78
2018-09-28T20:29:48.023Z,100359.26
2018-09-28T20:32:16.594Z,100366.25
2018-09-28T20:34:46.692Z,100361.30
2018-09-28T20:37:15.226Z,100375.87
2018-09-28T20:39:43.789Z,100366.05
2018-09-28T20:42:12.326Z,100361.94
2018-09-28T20:44:42.262Z,100360.81
2018-09-28T20:47:10.886Z,100367.36
2018-09-28T20:49:39.454Z,100365.65
2018-09-28T20:52:08.141Z,100367.52
2018-09-28T20:54:36.783Z,100364.73
2018-09-28T20:57:07.700Z,100358.41
2018-09-28T20:59:36.276Z,100362.36
2018-09-28T21:02:06.201Z,100368.27
2018-09-28T21:04:34.864Z,100365.58
2018-09-28T21:07:03.548Z,100358.48
2018-09-28T21:09:32.174Z,100360.16
2018-09-28T21:12:00.755Z,100360.31
2018-09-28T21:14:29.393Z,100370.23
2018-09-28T21:16:59.070Z,100361.88
2018-09-28T21:19:28.593Z,100366.63
2018-09-28T21:22:00.543Z,100364.76
2018-09-28T21:24:31.473Z,100368.31
2018-09-28T21:27:02.449Z,100372.09
2018-09-28T21:29:31.292Z,100371.88
2018-09-28T21:31:59.836Z,100370.48
2018-09-28T21:34:28.375Z,100368.15
2018-09-28T21:36:56.962Z,100368.81
2018-09-28T21:39:25.493Z,100369.30
2018-09-28T21:41:54.061Z,100366.81
2018-09-28T21:44:22.623Z,100367.98
2018-09-28T21:46:51.247Z,100381.20
2018-09-28T21:49:19.781Z,100383.44
2018-09-28T21:51:48.335Z,100378.17
2018-09-28T21:54:16.871Z,100382.27
2018-09-28T21:56:45.468Z,100388.55
2018-09-28T21:59:14.029Z,100382.96
2018-09-28T22:01:42.605Z,100386.05
2018-09-28T22:04:11.148Z,100390.00
2018-09-28T22:06:39.717Z,100396.19
2018-09-28T22:09:08.925Z,100394.09
2018-09-28T22:11:37.537Z,100397.78
2018-09-28T22:14:06.189Z,100401.22
2018-09-28T22:16:34.714Z,100396.60
2018-09-28T22:19:03.252Z,100399.34
2018-09-28T22:21:31.812Z,100392.29
2018-09-28T22:24:00.353Z,100388.48
2018-09-28T22:26:28.921Z,100385.30
2018-09-28T22:28:57.458Z,100378.98
2018-09-28T22:31:26.029Z,100378.38
2018-09-28T22:33:54.569Z,100385.91
2018-09-28T22:36:23.150Z,100376.92
2018-09-28T22:38:51.664Z,100376.01
2018-09-28T22:41:20.221Z,100386.73
2018-09-28T22:43:48.815Z,100386.83
2018-09-28T22:46:17.347Z,100396.64
2018-09-28T22:48:45.885Z,100387.08
2018-09-28T22:51:14.448Z,100395.71
2018-09-28T22:53:44.741Z,100396.59
2018-09-28T22:56:13.371Z,100400.67
2018-09-28T22:58:41.908Z,100404.55
2018-09-28T23:01:10.481Z,100406.02
2018-09-28T23:03:39.062Z,100405.23
2018-09-28T23:06:08.193Z,100400.80
2018-09-28T23:08:36.809Z,100398.70
2018-09-28T23:11:05.378Z,100390.09
2018-09-28T23:13:33.988Z,100396.48
2018-09-28T23:16:02.603Z,100397.06
2018-09-28T23:18:36.405Z,100392.41
2018-09-28T23:21:05.062Z,100392.10
2018-09-28T23:23:33.762Z,100392.68
2018-09-28T23:26:02.340Z,100396.52
2018-09-28T23:28:32.291Z,100390.45
2018-09-28T23:31:00.894Z,100396.73
2018-09-28T23:33:29.786Z,100390.70
2018-09-28T23:35:58.329Z,100388.51
2018-09-28T23:38:26.959Z,100390.47
2018-09-28T23:40:55.532Z,100391.57
2018-09-28T23:43:24.101Z,100390.19
2018-09-28T23:45:52.661Z,100396.82
2018-09-28T23:48:21.245Z,100394.90
2018-09-28T23:50:49.797Z,100395.23
2018-09-28T23:53:18.378Z,100403.96
2018-09-28T23:55:47.493Z,100401.73
2018-09-28T23:58:16.085Z,100405.08
